Tiempo atmosférico en la estación meteorológica de Valdezcaray, estación de esquí, La Rioja (1630 m.)



Fecha
DESCASC
Temp. máxima en grados centígrados (hora)
DESCASC
Temp. mínima en grados centígrados (hora)
DESCASC
Temp. media en grados centígrados
DESCASC
Racha de viento máxima en m/sg (hora)
DESCASC
Velocidad máxima media en intervalos de 10 minutos(hora)
DESCASC
Precipitaciones diarias en mm
DESCASC
Precipitaciones de 00:00 a 06:00 en mm
DESCASC
Precipitaciones de 06:00 a 12:00 en mm
DESCASC
Precipitaciones de 12:00 a 18:00 en mm
DESCASC
Precipitaciones de 18:00 a 24:00 en mm
DESCASC
29-03-2020 5.3 (14:30) -1 (23:10) 2.2 8.61 (22:20) 4.44 (18:00) 0 0 0 0 0
28-03-2020 7.7 (17:00) -1 (00:40) 3.3 5 (13:10) 4.17 (01:30) 0 0 0 0 0
27-03-2020 3.9 (14:50) -5.7 (02:30) -0.9 10.83 (10:00) 6.94 (03:00) 0 0 0 0 0
26-03-2020 0.5 (16:40) -5.4 (-00:0) -2.5 12.78 (10:30) 5.56 (11:30) 0 0 0 0 0
25-03-2020 7.1 (16:10) -2.7 (-00:0) 2.2 8.06 (14:20) 4.72 (15:10) 0 0 0 0 0
24-03-2020 6.5 (17:30) 2.1 (00:00) 4.3 13.33 (01:30) 9.17 (01:00) 0.2 0.2 0 0 0
23-03-2020 5.3 (16:40) 1.8 (00:00) 3.6 13.61 (23:59) 8.33 (23:59) 1.4 0 0 1.2 0.2
22-03-2020 6.8 (16:30) 2.6 (02:30) 4.7 10.56 (17:20) 6.11 (23:10) 0 0 0 0 0
21-03-2020 9.1 (14:20) 2.4 (00:00) 5.8 11.11 (03:50) 8.06 (04:30) 0 0 0 0 0
20-03-2020 7.2 (14:30) 3.7 (00:00) 5.4 13.61 (10:40) 9.17 (20:40) 0 0 0 0 0
19-03-2020 8.9 (13:20) 4.3 (00:00) 6.6 10 (22:10) 8.06 (22:00) 0 0 0 0 0
18-03-2020 9.1 (13:40) 5.2 (00:00) 7.2 12.5 (00:40) 7.22 (00:10) 0 0 0 0 0
17-03-2020 7.2 (23:59) -0.3 (00:00) 3.4 18.33 (15:00) 9.72 (20:20) 8.8 7.2 1.6 0 0
16-03-2020 0.3 (00:00) -3 (-00:0) -1.3 15.28 (16:10) 5.83 (16:10) 60.4 18 19 13.8 9.6
15-03-2020 12.2 (14:40) 0.3 (00:00) 6.2 16.67 (19:10) 9.72 (05:30) 13.6 0 0 5.2 8.4
14-03-2020 10.5 (17:50) 2.1 (00:00) 6.3 8.06 (23:40) 5.28 (23:20) 0 0 0 0 0
13-03-2020 6.7 (21:40) 1 (08:10) 3.8 4.44 (22:20) 2.22 (22:20) 1.4 0.8 0.6 0 0
12-03-2020 16.6 (12:00) 3.2 (00:00) 9.9 11.39 (01:00) 4.44 (00:10) 0.4 0 0 0 0.4
11-03-2020 17.3 (14:40) 6.6 (00:00) 11.9 15.28 (23:50) 8.61 (23:50) 0 0 0 0 0
10-03-2020 16 (16:30) 2.3 (00:00) 9.1 7.22 (16:10) 3.89 (15:20) 0 0 0 0 0
09-03-2020 2.7 (00:00) -1.3 (-00:0) 0.7 10.83 (11:40) 5.83 (12:30) 0 0 0 0 0
08-03-2020 9.3 (13:30) 0.8 (00:00) 5.1 10.83 (23:00) 4.44 (18:50) 0 0 0 0 0
07-03-2020 2.8 (23:59) -3.4 (-00:0) -0.3 11.39 (01:30) 5.83 (00:50) 4 0.8 3 0.2 0
06-03-2020 -0.1 (00:00) -4.1 (-00:0) -2.1 20 (15:30) 10 (15:40) 1.8 0 0.6 0 1.2
05-03-2020 6.4 (01:40) -0.7 (-00:0) 2.9 27.5 (11:50) 15.28 (11:50) 6.4 0.2 4.4 1.8 0
04-03-2020 8.4 (14:10) 4.6 (00:00) 6.5 17.78 (20:10) 9.72 (20:10) 0.4 0.2 0.2 0 0
03-03-2020 9.6 (16:50) -2.4 (-00:0) 3.6 31.39 (09:10) 14.72 (08:30) 0.8 0 0.8 0 0
02-03-2020 4.9 (01:00) -2.6 (-00:0) 1.2 48.89 (05:00) 21.94 (04:20) 20.4 15.2 1.2 4 0
01-03-2020 6.4 (15:10) 0.2 (00:00) 3.3 30.28 (18:40) 15.28 (09:20) 8.2 0 0.2 0 8
29-02-2020 6.4 (00:00) 1.2 (00:00) 3.8 32.5 (05:10) 15 (14:10) 0.6 0 0 0.6 0

Gráficas

Temp. máximas Temp. mínimas Temp. medias Precipitaciones Rachas de viento máximas Velocidades máximas media en intervalos de 10 minutos

Datos horarios

Fecha y hora oficial Temperatura (ºC) Velocidad del viento (km/h) Dirección del viento Racha (km/h) Dirección de racha Precipitación (mm) Presión (hPa) Tendencia (hPa) Humedad (%)
2020-03-29 23:00:00 -0.9 10 Noroeste 31 Noroeste 0 -- -- 100
2020-03-29 22:00:00 -0.4 9 Norte 21 Noroeste 0 -- -- 100
2020-03-29 21:00:00 0 9 Norte 19 Norte 0 -- -- 100
2020-03-29 20:00:00 0.5 7 Norte 24 Norte 0 -- -- 99
2020-03-29 19:00:00 1.3 11 Noroeste 26 Noroeste 0 -- -- 92
2020-03-29 18:00:00 3.2 16 Noroeste 26 Noroeste 0 -- -- 73
2020-03-29 17:00:00 4.3 15 Noroeste 30 Noroeste 0 -- -- 68
2020-03-29 16:00:00 4.7 12 Noroeste 24 Noroeste 0 -- -- 67
2020-03-29 15:00:00 5.1 14 Noroeste 22 Noroeste 0 -- -- 44
2020-03-29 14:00:00 5 10 Noroeste 18 Noroeste 0 -- -- 47
2020-03-29 13:00:00 4.2 8 Noroeste 13 Noroeste 0 -- -- 62
2020-03-29 12:00:00 2.6 4 Oeste 9 Noroeste 0 -- -- 71
2020-03-29 11:00:00 2.9 2 Norte 10 Sur 0 -- -- 72
2020-03-29 10:00:00 2 8 Sudeste 10 Sudeste 0 -- -- 59
2020-03-29 09:00:00 2.2 7 Sudeste 12 Sudeste 0 -- -- 56
2020-03-29 08:00:00 1.5 3 Sudeste 10 Sudeste 0 -- -- 61
2020-03-29 07:00:00 1.4 8 Sudeste 12 Sur 0 -- -- 66
2020-03-29 06:00:00 1.4 7 Sudeste 11 Sudeste 0 -- -- 71
2020-03-29 05:00:00 0.7 4 Sudeste 12 Sudeste 0 -- -- 78
2020-03-29 03:00:00 2 3 Sudeste 14 Sur 0 -- -- 71
2020-03-29 01:00:00 1.9 9 Este 14 Sudeste 0 -- -- 74
2020-03-29 00:00:00 3.3 9 Sudeste 14 Sudeste 0 -- -- 69
2020-03-28 23:00:00 2.8 8 Sudeste 12 Sudeste 0 -- -- 70
2020-03-28 22:00:00 2.8 7 Sudeste 14 Este 0 -- -- 70
2020-03-28 21:00:00 2.6 7 Este 14 Este 0 -- -- 70
2020-03-28 20:00:00 3.2 13 Este 17 Este 0 -- -- 65
2020-03-28 19:00:00 5.4 3 Sudoeste 8 Oeste 0 -- -- 60
2020-03-28 18:00:00 7.4 6 Noroeste 14 Oeste 0 -- -- 52
2020-03-28 17:00:00 7.7 8 Noroeste 16 Noroeste 0 -- -- 55
2020-03-28 16:00:00 7.3 9 Noroeste 15 Noroeste 0 -- -- 54
2020-03-28 15:00:00 7 7 Noroeste 16 Noroeste 0 -- -- 54
2020-03-28 14:00:00 7.2 9 Noroeste 18 Noroeste 0 -- -- 53
2020-03-28 13:00:00 6.5 9 Noroeste 15 Noroeste 0 -- -- 50
2020-03-28 12:00:00 5.6 7 Noroeste 13 Noroeste 0 -- -- 45
2020-03-28 11:00:00 4.5 4 Noroeste 10 Noroeste 0 -- -- 42
2020-03-28 10:00:00 3.8 4 Noroeste 6 Noroeste 0 -- -- 43
2020-03-28 09:00:00 1 4 Sudeste 9 Sudeste 0 -- -- 52
2020-03-28 08:00:00 -0.5 6 Sudeste 13 Sur 0 -- -- 59
2020-03-28 07:00:00 -0.6 9 Este 16 Sur 0 -- -- 55
2020-03-28 06:00:00 -0.4 12 Sudeste 16 Sudeste 0 -- -- 48
2020-03-28 05:00:00 -0.8 6 Sudeste 14 Sur 0 -- -- 38
2020-03-28 04:00:00 -0.2 10 Sudeste 17 Sudeste 0 -- -- 34
2020-03-28 03:00:00 1.1 13 Sudeste 17 Este 0 -- -- 23
2020-03-28 02:00:00 -0.7 8 Este 17 Este 0 -- -- 39
2020-03-28 01:00:00 -0.4 3 Sudeste 15 Este 0 -- -- 42
2020-03-28 00:00:00 0.5 16 Este 18 Este 0 -- -- 45
2020-03-27 23:00:00 0.4 14 Este 18 Sudeste 0 -- -- 53
2020-03-27 22:00:00 -0.5 12 Este 17 Este 0 -- -- 62
2020-03-27 21:00:00 0.3 15 Sudeste 20 Este 0 -- -- 60
2020-03-27 20:00:00 0.5 13 Sudeste 21 Sudeste 0 -- -- 58
2020-03-27 19:00:00 1.8 14 Sudeste 24 Este 0 -- -- 54
2020-03-27 18:00:00 3.4 13 Este 23 Este 0 -- -- 51
2020-03-27 17:00:00 2.1 16 Este 25 Este 0 -- -- 51
2020-03-27 16:00:00 2.5 13 Este 28 Este 0 -- -- 67
2020-03-27 15:00:00 3 13 Sudeste 26 Este 0 -- -- 71
2020-03-27 14:00:00 2.5 10 Este 23 Sudeste 0 -- -- 71
2020-03-27 13:00:00 1.8 8 Noroeste 21 Sudeste 0 -- -- 75
2020-03-27 12:00:00 1.6 8 Este 30 Sudeste 0 -- -- 55
2020-03-27 11:00:00 0.5 9 Sur 33 Sudeste 0 -- -- 51
2020-03-27 10:00:00 -1.4 23 Sur 39 Sudeste 0 -- -- 66
2020-03-27 09:00:00 -4.9 17 Sudeste 27 Sudeste 0 -- -- 88
2020-03-27 08:00:00 -5 13 Sudeste 30 Sudeste 0 -- -- 89
2020-03-27 07:00:00 -4.8 15 Sudeste 28 Sur 0 -- -- 88
2020-03-27 06:00:00 -4.9 16 Sur 32 Sur 0 -- -- 90
2020-03-27 05:00:00 -4.7 17 Sur 28 Sudeste 0 -- -- 82
2020-03-27 04:00:00 -4.6 21 Sur 37 Sudeste 0 -- -- 80
2020-03-27 03:00:00 -5.1 25 Sur 35 Sur 0 -- -- 76
2020-03-27 02:00:00 -5.5 5 Noroeste 16 Norte 0 -- -- 89
2020-03-27 01:00:00 -5.4 8 Noroeste 18 Norte 0 -- -- 80
2020-03-27 00:00:00 -5.4 14 Noroeste 24 Noroeste 0 -- -- 91
2020-03-26 23:00:00 -4.5 9 Noroeste 26 Noroeste 0 -- -- 95
2020-03-26 22:00:00 -4 7 Norte 24 Noroeste 0 -- -- 92
2020-03-26 21:00:00 -3.4 9 Noroeste 22 Noroeste 0 -- -- 98
2020-03-26 20:00:00 -2.8 6 Noroeste 18 Noroeste 0 -- -- 95
2020-03-26 19:00:00 -2.1 5 Noroeste 21 Noroeste 0 -- -- 87
2020-03-26 18:00:00 -1.2 9 Noroeste 24 Noroeste 0 -- -- 87
2020-03-26 17:00:00 -0.5 14 Noroeste 24 Noroeste 0 -- -- 83
2020-03-26 16:00:00 -1.2 12 Noroeste 29 Noroeste 0 -- -- 88
2020-03-26 15:00:00 -1 13 Noroeste 32 Noroeste 0 -- -- 85
2020-03-26 14:00:00 -1.8 15 Noroeste 37 Noroeste 0 -- -- 98
2020-03-26 13:00:00 -2 17 Noroeste 35 Noroeste 0 -- -- 93
2020-03-26 12:00:00 -2.6 16 Noroeste 35 Norte 0 -- -- 98
2020-03-26 11:00:00 -2.7 18 Noroeste 46 Noroeste 0 -- -- 99
2020-03-26 10:00:00 -2.5 14 Noroeste 33 Noroeste 0 -- -- 99
2020-03-26 09:00:00 -2.3 14 Noroeste 30 Noroeste 0 -- -- 99
2020-03-26 08:00:00 -2.1 12 Noroeste 33 Noroeste 0 -- -- 100
2020-03-26 07:00:00 -2 11 Noroeste 28 Oeste 0 -- -- 100
2020-03-26 06:00:00 -1.8 9 Noroeste 18 Norte 0 -- -- 100
2020-03-26 05:00:00 -1.9 10 Noroeste 21 Noroeste 0 -- -- 98
2020-03-26 04:00:00 -2.5 4 Noroeste 12 Noroeste 0 -- -- 99
2020-03-26 03:00:00 -2.3 5 Este 13 Sudoeste 0 -- -- 90
2020-03-26 02:00:00 -2.7 4 Sur 12 Norte 0 -- -- 85
2020-03-26 01:00:00 -3.6 3 Nordeste 13 Noroeste 0 -- -- 81
2020-03-26 00:00:00 -2.4 4 Norte 9 Sudoeste 0 -- -- 74
2020-03-25 23:00:00 -2.4 5 Este 9 Sur 0 -- -- 90
2020-03-25 22:00:00 -1.3 4 Este 9 Este 0 -- -- 87
2020-03-25 21:00:00 1.3 7 Norte 16 Norte 0 -- -- 71
2020-03-25 20:00:00 1.8 3 Este 17 Noroeste 0 -- -- 74
2020-03-25 19:00:00 4.1 10 Noroeste 22 Noroeste 0 -- -- 59
2020-03-25 18:00:00 5.2 11 Noroeste 29 Noroeste 0 -- -- 65
2020-03-25 17:00:00 6.3 16 Noroeste 28 Noroeste 0 -- -- 62
2020-03-25 16:00:00 6.7 12 Noroeste 26 Noroeste 0 -- -- 63
2020-03-25 15:00:00 6.6 12 Noroeste 29 Noroeste 0 -- -- 59
2020-03-25 14:00:00 6.2 12 Noroeste 29 Noroeste 0 -- -- 40
2020-03-25 13:00:00 5.3 12 Noroeste 22 Noroeste 0 -- -- 65
2020-03-25 12:00:00 4.4 8 Noroeste 17 Norte 0 -- -- 66
2020-03-25 11:00:00 3.6 6 Noroeste 17 Noroeste 0 -- -- 74
2020-03-25 10:00:00 2.2 6 Noroeste 14 Norte 0 -- -- 89
2020-03-25 09:00:00 1.9 8 Noroeste 16 Norte 0 -- -- 96
2020-03-25 08:00:00 1.6 4 Oeste 10 Oeste 0 -- -- 92
2020-03-25 07:00:00 1.1 3 Oeste 9 Oeste 0 -- -- 94
2020-03-25 06:00:00 0.9 4 Sudoeste 12 Sudeste 0 -- -- 86
2020-03-25 05:00:00 0.7 5 Sudeste 10 Este 0 -- -- 87
2020-03-25 04:00:00 1.3 5 Nordeste 10 Este 0 -- -- 91
2020-03-25 03:00:00 1.8 3 Este 13 Este 0 -- -- 88
2020-03-25 02:00:00 2.3 3 Nordeste 13 Este 0 -- -- 91
2020-03-25 01:00:00 3.2 3 Nordeste 14 Norte 0 -- -- 90
2020-03-25 00:00:00 3.1 3 Sudeste 12 Noroeste 0 -- -- 93
2020-03-24 23:00:00 3.8 2 Sudeste 14 Noroeste 0 -- -- 89
2020-03-24 22:00:00 4.2 7 Norte 13 Noroeste 0 -- -- 84
2020-03-24 21:00:00 3.8 5 Sudeste 19 Sur 0 -- -- 84
2020-03-24 20:00:00 4.4 17 Sur 27 Sur 0 -- -- 78
2020-03-24 19:00:00 4.9 16 Sur 27 Sur 0 -- -- 75
2020-03-24 18:00:00 5.9 8 Sur 26 Sur 0 -- -- 74
2020-03-24 17:00:00 5.4 13 Sudeste 24 Sudeste 0 -- -- 82
2020-03-24 16:00:00 6.3 12 Este 28 Sudeste 0 -- -- 81
2020-03-24 15:00:00 5.8 15 Sudeste 25 Sudeste 0 -- -- 81
2020-03-24 14:00:00 4.7 5 Este 24 Sudeste 0 -- -- 84
2020-03-24 13:00:00 5.2 14 Sudeste 31 Sudeste 0 -- -- 85
2020-03-24 12:00:00 5 19 Sudeste 31 Sudeste 0 -- -- 79
2020-03-24 11:00:00 4.7 19 Sudeste 34 Sudeste 0 -- -- 71
2020-03-24 10:00:00 3.9 17 Sudeste 48 Sudeste 0 -- -- 75
2020-03-24 09:00:00 2.9 24 Sudeste 42 Sudeste 0 -- -- 79
2020-03-24 08:00:00 2.3 20 Sur 43 Sudeste 0 -- -- 83
2020-03-24 07:00:00 2.2 23 Sudeste 38 Sudeste 0 -- -- 84
2020-03-24 06:00:00 3 16 Sudeste 28 Sudeste 0 -- -- 80
2020-03-24 05:00:00 2.9 16 Sudeste 31 Este 0.2 -- -- 87
2020-03-24 04:00:00 3.5 22 Sudeste 39 Este 0 -- -- 82
2020-03-24 03:00:00 3.3 17 Sudeste 46 Sudeste 0 -- -- 88
2020-03-24 02:00:00 3.3 21 Sudeste 48 Sudeste 0 -- -- 89
2020-03-24 01:00:00 3.8 33 Sudeste 48 Sudeste 0 -- -- 84
2020-03-24 00:00:00 3.6 30 Sudeste 49 Sudeste 0 -- -- 86
2020-03-23 23:00:00 3.2 22 Sudeste 34 Sudeste 0 -- -- 90
2020-03-23 22:00:00 3.5 19 Sudeste 36 Sudeste 0 -- -- 85
2020-03-23 21:00:00 3.7 23 Sudeste 36 Sudeste 0 -- -- 85
2020-03-23 20:00:00 3.7 24 Sudeste 33 Sudeste 0 -- -- 87
2020-03-23 19:00:00 4.2 18 Sudeste 31 Sudeste 0.2 -- -- 86
2020-03-23 18:00:00 4.5 11 Sur 30 Sudeste 1.2 -- -- 90
2020-03-23 17:00:00 5.1 7 Sudeste 19 Sudeste 0 -- -- 88
2020-03-23 16:00:00 4.4 8 Sudeste 23 Sudeste 0 -- -- 93
2020-03-23 15:00:00 4.2 10 Sudeste 22 Sudeste 0 -- -- 92
2020-03-23 14:00:00 4.5 13 Sudeste 25 Sudeste 0 -- -- 83
2020-03-23 13:00:00 3.5 13 Sudeste 30 Sudeste 0 -- -- 90
2020-03-23 12:00:00 3.5 12 Sudeste 24 Sudeste 0 -- -- 92
2020-03-23 11:00:00 3.5 14 Sudeste 36 Sur 0 -- -- 89
2020-03-23 10:00:00 3.5 17 Sudeste 30 Sudeste 0 -- -- 80
2020-03-23 09:00:00 2.3 18 Sudeste 29 Sudeste 0 -- -- 90
2020-03-23 08:00:00 2.1 14 Sudeste 28 Sudeste 0 -- -- 90
2020-03-23 07:00:00 2.1 14 Sudeste 28 Sudeste 0 -- -- 89
2020-03-23 06:00:00 2.1 17 Sudeste 31 Sudeste 0 -- -- 91
2020-03-23 05:00:00 2.1 15 Sudeste 29 Sudeste 0 -- -- 93
2020-03-23 04:00:00 2.5 17 Sudeste 26 Sur 0 -- -- 87
2020-03-23 03:00:00 2.6 15 Sudeste 30 Sudeste 0 -- -- 89
2020-03-23 02:00:00 2.7 19 Sudeste 29 Sudeste 0 -- -- 86
2020-03-23 01:00:00 2.7 17 Sudeste 32 Sur 0 -- -- 88
2020-03-23 00:00:00 2.8 19 Sur 30 Sudeste 0 -- -- 89
2020-03-22 23:00:00 3 19 Sur 28 Sur 0 -- -- 85
2020-03-22 22:00:00 2.8 13 Sur 24 Sur 0 -- -- 97
2020-03-22 21:00:00 3.3 9 Sur 33 Sur 0 -- -- 93
2020-03-22 20:00:00 3.9 9 Noroeste 28 Sudeste 0 -- -- 90
2020-03-22 19:00:00 4.5 12 Sudoeste 32 Sur 0 -- -- 83
2020-03-22 18:00:00 6 15 Sur 38 Sur 0 -- -- 73
2020-03-22 17:00:00 6.6 14 Sur 35 Sur 0 -- -- 70
2020-03-22 16:00:00 6.2 13 Sur 34 Sudeste 0 -- -- 75
2020-03-22 15:00:00 4.7 11 Sudoeste 27 Sudeste 0 -- -- 85
2020-03-22 14:00:00 6 7 Sudeste 22 Sudeste 0 -- -- 79
2020-03-22 13:00:00 4.9 7 Sur 22 Sur 0 -- -- 84
2020-03-22 12:00:00 4.7 9 Sur 36 Sudeste 0 -- -- 84
2020-03-22 11:00:00 4.4 12 Sur 22 Sur 0 -- -- 83
2020-03-22 10:00:00 4.6 9 Sur 22 Sur 0 -- -- 89
2020-03-22 09:00:00 3.6 10 Sur 17 Sudeste 0 -- -- 86
2020-03-22 08:00:00 3.2 8 Sur 15 Sur 0 -- -- 90
2020-03-22 07:00:00 3.3 8 Sudeste 15 Este 0 -- -- 86
2020-03-22 06:00:00 3 3 Este 8 Este 0 -- -- 93
2020-03-22 05:00:00 2.7 5 Sudeste 7 Sur 0 -- -- 92
2020-03-22 04:00:00 2.8 0 Calma 10 Sudeste 0 -- -- 90
2020-03-22 03:00:00 2.9 9 Sur 14 Sur 0 -- -- 86
2020-03-22 02:00:00 2.9 3 Sur 11 Sudeste 0 -- -- 83
2020-03-22 01:00:00 3.8 6 Sudeste 13 Sudeste 0 -- -- 82
2020-03-22 00:00:00 3.8 8 Sudeste 13 Sudeste 0 -- -- 85
2020-03-21 23:00:00 3.1 5 Sudeste 15 Sudeste 0 -- -- 87
2020-03-21 22:00:00 3.1 5 Este 10 Nordeste 0 -- -- 87
2020-03-21 21:00:00 3 5 Este 20 Sur 0 -- -- 87
2020-03-21 20:00:00 4.5 8 Sudeste 17 Sudeste 0 -- -- 82
2020-03-21 19:00:00 5.3 10 Este 14 Este 0 -- -- 84
2020-03-21 18:00:00 5.8 5 Noroeste 19 Este 0 -- -- 92
2020-03-21 17:00:00 6.1 3 Noroeste 13 Este 0 -- -- 94
2020-03-21 16:00:00 7.8 5 Sudeste 20 Sudeste 0 -- -- 72
2020-03-21 15:00:00 8.4 10 Sudeste 21 Este 0 -- -- 70
2020-03-21 14:00:00 8.2 13 Sudeste 33 Sudeste 0 -- -- 68
2020-03-21 13:00:00 8.3 16 Sudeste 32 Sudeste 0 -- -- 66
2020-03-21 12:00:00 8 17 Sur 33 Sudeste 0 -- -- 60
2020-03-21 11:00:00 7.1 15 Sudeste 33 Sudeste 0 -- -- 61
2020-03-21 10:00:00 6.6 14 Sudeste 23 Sudeste 0 -- -- 66
2020-03-21 09:00:00 5.5 8 Sudeste 19 Sudoeste 0 -- -- 69
2020-03-21 08:00:00 4.8 5 Este 19 Este 0 -- -- 70
2020-03-21 07:00:00 4.6 8 Sudeste 30 Sur 0 -- -- 75
2020-03-21 06:00:00 5.1 17 Sur 35 Sur 0 -- -- 74
2020-03-21 05:00:00 5.3 27 Sur 38 Sur 0 -- -- 76
2020-03-21 04:00:00 5.4 19 Sudeste 40 Sur 0 -- -- 75
2020-03-21 03:00:00 5.9 22 Sur 36 Sur 0 -- -- 73
2020-03-21 02:00:00 5.2 23 Sudeste 33 Sudeste 0 -- -- 78
2020-03-21 01:00:00 4.2 28 Sudeste 35 Sudeste 0 -- -- 83
2020-03-21 00:00:00 5.3 6 Sudeste 28 Sudeste 0 -- -- 63
2020-03-20 23:00:00 4.9 22 Sur 27 Sudeste 0 -- -- 71
2020-03-20 22:00:00 4.8 3 Este 36 Sur 0 -- -- 75
2020-03-20 21:00:00 5.1 19 Sur 40 Sur 0 -- -- 75
2020-03-20 20:00:00 5.1 27 Sur 40 Sur 0 -- -- 81
2020-03-20 19:00:00 5 23 Sudeste 38 Sudeste 0 -- -- 88
2020-03-20 18:00:00 5.8 18 Sudeste 30 Sudeste 0 -- -- 82
2020-03-20 17:00:00 7 6 Sur 26 Sur 0 -- -- 74
2020-03-20 16:00:00 6.6 18 Sudeste 31 Sur 0 -- -- 75
2020-03-20 15:00:00 6 21 Sudeste 27 Sudeste 0 -- -- 79
2020-03-20 14:00:00 6.7 10 Sudeste 32 Sur 0 -- -- 74
2020-03-20 13:00:00 6 9 Sudeste 26 Sur 0 -- -- 76
2020-03-20 12:00:00 4.4 18 Sudeste 44 Este 0 -- -- 83
2020-03-20 11:00:00 3.8 20 Sudeste 49 Sudeste 0 -- -- 84
2020-03-20 10:00:00 5.3 17 Sudeste 33 Sudeste 0 -- -- 70
2020-03-20 09:00:00 6 9 Este 37 Sudeste 0 -- -- 63
2020-03-20 08:00:00 5.7 8 Este 35 Sur 0 -- -- 66
2020-03-20 07:00:00 5.3 23 Sur 37 Este 0 -- -- 66
2020-03-20 06:00:00 5.5 19 Sudeste 42 Sudoeste 0 -- -- 67
2020-03-20 05:00:00 5.7 22 Sudeste 37 Sudeste 0 -- -- 67
2020-03-20 04:00:00 4.8 24 Sudeste 43 Sur 0 -- -- 79
2020-03-20 03:00:00 4.7 30 Sudeste 41 Sudeste 0 -- -- 80
2020-03-20 02:00:00 5.3 24 Sudeste 43 Sur 0 -- -- 77
2020-03-20 01:00:00 6 30 Sur 42 Sudeste 0 -- -- 73
2020-03-20 00:00:00 6 27 Sur 35 Sur 0 -- -- 66
2020-03-19 23:00:00 6.5 27 Sur 36 Sudeste 0 -- -- 63
2020-03-19 22:00:00 6.7 29 Sudeste 35 Sudeste 0 -- -- 65
2020-03-19 21:00:00 7.2 20 Sur 29 Sur 0 -- -- 45
2020-03-19 20:00:00 5.9 26 Sudeste 31 Sudeste 0 -- -- 59
2020-03-19 19:00:00 5.5 20 Sur 31 Sur 0 -- -- 62
2020-03-19 18:00:00 6.7 21 Sur 26 Sur 0 -- -- 63
2020-03-19 17:00:00 7.6 20 Sudeste 25 Sudeste 0 -- -- 67
2020-03-19 16:00:00 8.1 15 Este 19 Sudeste 0 -- -- 61
2020-03-19 15:00:00 8.2 15 Sudeste 21 Sudeste 0 -- -- 53
2020-03-19 14:00:00 8 17 Sudeste 21 Sudeste 0 -- -- 54
2020-03-19 13:00:00 8.3 15 Sudeste 24 Sudeste 0 -- -- 55
2020-03-19 12:00:00 8.2 13 Sudeste 23 Sudeste 0 -- -- 55
2020-03-19 11:00:00 7.6 16 Sudeste 22 Sudeste 0 -- -- 58
2020-03-19 10:00:00 6.9 18 Sudeste 23 Sur 0 -- -- 59
2020-03-19 09:00:00 6.2 18 Sudeste 22 Sudeste 0 -- -- 62
2020-03-19 08:00:00 4.9 17 Sudeste 22 Sudeste 0 -- -- 67
2020-03-19 07:00:00 5.2 18 Sudeste 22 Sudeste 0 -- -- 70
2020-03-19 06:00:00 5.7 18 Sudeste 22 Sudeste 0 -- -- 67
2020-03-19 05:00:00 6.1 17 Sudeste 22 Sudeste 0 -- -- 67
2020-03-19 04:00:00 5.8 17 Sudeste 21 Sudeste 0 -- -- 70
2020-03-19 03:00:00 6.7 18 Sudeste 22 Sudeste 0 -- -- 65
2020-03-19 02:00:00 7.1 10 Sudeste 27 Sudeste 0 -- -- 63
2020-03-19 01:00:00 6.9 19 Sudeste 22 Sudeste 0 -- -- 66
2020-03-19 00:00:00 6 18 Sudeste 26 Sudeste 0 -- -- 69
2020-03-18 23:00:00 6.8 18 Sudeste 21 Sudeste 0 -- -- 65
2020-03-18 22:00:00 7.6 18 Sudeste 22 Sudeste 0 -- -- 61
2020-03-18 21:00:00 7.8 17 Sudeste 21 Sudeste 0 -- -- 61
2020-03-18 20:00:00 8 15 Sudeste 17 Sudeste 0 -- -- 64
2020-03-18 19:00:00 8.3 10 Sudeste 13 Sudeste 0 -- -- 63
2020-03-18 18:00:00 7.9 9 Este 18 Sudeste 0 -- -- 73
2020-03-18 17:00:00 7.1 12 Sudeste 16 Sudeste 0 -- -- 74
2020-03-18 16:00:00 8.8 14 Sudeste 19 Este 0 -- -- 71
2020-03-18 15:00:00 8.7 13 Este 15 Este 0 -- -- 73
2020-03-18 14:00:00 8.5 11 Sudeste 17 Sudeste 0 -- -- 66
2020-03-18 13:00:00 7.8 16 Sudeste 26 Sudeste 0 -- -- 71
2020-03-18 12:00:00 7.6 22 Sudeste 24 Sudeste 0 -- -- 68
2020-03-18 11:00:00 7.1 22 Sudeste 26 Sur 0 -- -- 70
2020-03-18 10:00:00 6.7 13 Sur 25 Sudeste 0 -- -- 70
2020-03-18 09:00:00 6.1 15 Sur 27 Sudeste 0 -- -- 72
2020-03-18 08:00:00 6.2 19 Sudeste 31 Sudeste 0 -- -- 72
2020-03-18 07:00:00 5.9 19 Sur 33 Sur 0 -- -- 74
2020-03-18 06:00:00 6 18 Sur 24 Sudeste 0 -- -- 73
2020-03-18 05:00:00 5.2 2 Sudeste 21 Sudeste 0 -- -- 79
2020-03-18 04:00:00 7 8 Sur 29 Sur 0 -- -- 70
2020-03-18 03:00:00 6.5 3 Norte 33 Sur 0 -- -- 74
2020-03-18 02:00:00 7.3 20 Sur 33 Sur 0 -- -- 71
2020-03-18 01:00:00 6.4 19 Sudeste 45 Sur 0 -- -- 77
2020-03-18 00:00:00 7.2 29 Sur 48 Sur 0 -- -- 72
2020-03-17 23:00:00 5.9 20 Sudeste 52 Sur 0 -- -- 78
2020-03-17 22:00:00 5.4 28 Sur 50 Sur 0 -- -- 86
2020-03-17 21:00:00 4.4 27 Sudeste 53 Sudeste 0 -- -- 96
2020-03-17 20:00:00 5.2 28 Sudeste 62 Sudeste 0 -- -- 90
2020-03-17 19:00:00 5 24 Sudeste 45 Sudeste 0 -- -- 96
2020-03-17 18:00:00 5 22 Sudeste 49 Este 0 -- -- 97
2020-03-17 17:00:00 5.2 17 Este 46 Este 0 -- -- 94
2020-03-17 16:00:00 4.9 14 Sudeste 59 Este 0 -- -- 98
2020-03-17 15:00:00 4.5 24 Sudeste 66 Sudeste 0 -- -- 100
2020-03-17 14:00:00 4.6 31 Sudeste 55 Sudeste 0 -- -- 99
2020-03-17 13:00:00 3.7 28 Sudeste 47 Sudeste 0 -- -- 100
2020-03-17 12:00:00 2.9 32 Sudeste 44 Sudeste 0 -- -- 100
2020-03-17 11:00:00 2.2 26 Sudeste 37 Sudeste 0 -- -- 100
2020-03-17 10:00:00 2 22 Sudeste 38 Sudeste 0.4 -- -- 100
2020-03-17 09:00:00 1.8 23 Sudeste 43 Sudeste 0.4 -- -- 100
2020-03-17 08:00:00 1.5 19 Sur 44 Sur 0.2 -- -- 100
2020-03-17 07:00:00 1.4 11 Sur 32 Sur 0.6 -- -- 100
2020-03-17 06:00:00 1 9 Sur 31 Sur 0.6 -- -- 100
2020-03-17 05:00:00 0.9 15 Sur 26 Sur 1.8 -- -- 100
2020-03-17 04:00:00 0.4 8 Sur 14 Sudeste 1.6 -- -- 100
2020-03-17 03:00:00 0.1 4 Sur 18 Sudeste 1 -- -- 100
2020-03-17 02:00:00 0 8 Sudeste 21 Sudeste 0.8 -- -- 100
2020-03-17 01:00:00 -0.2 6 Sur 18 Sudeste 1.4 -- -- 100
2020-03-17 00:00:00 -0.2 12 Sudeste 23 Sudeste 1 -- -- 100
2020-03-16 23:00:00 -0.6 8 Sur 16 Sudeste 3.6 -- -- 100
2020-03-16 22:00:00 -0.4 7 Noroeste 16 Noroeste 1.2 -- -- 100
2020-03-16 21:00:00 -0.2 9 Noroeste 30 Norte 1.2 -- -- 100
2020-03-16 20:00:00 0 12 Noroeste 26 Noroeste 1.8 -- -- 100
2020-03-16 19:00:00 -0.2 10 Noroeste 38 Noroeste 0.8 -- -- 100
2020-03-16 18:00:00 -0.1 19 Noroeste 37 Noroeste 0.8 -- -- 100
2020-03-16 17:00:00 -0.4 18 Noroeste 55 Noroeste 0.8 -- -- 100
2020-03-16 16:00:00 -0.8 8 Oeste 41 Noroeste 1.4 -- -- 98
2020-03-16 15:00:00 -1 14 Noroeste 28 Noroeste 1.8 -- -- 99
2020-03-16 14:00:00 -1.1 5 Noroeste 19 Sudeste 5.4 -- -- 98
2020-03-16 13:00:00 -1.1 5 Oeste 20 Sudeste 3.6 -- -- 98
2020-03-16 12:00:00 -1.7 6 Sudoeste 15 Oeste 4.4 -- -- 98
2020-03-16 11:00:00 -2.2 5 Oeste 21 Noroeste 4.2 -- -- 98
2020-03-16 10:00:00 -2.4 5 Noroeste 25 Este 3 -- -- 98
2020-03-16 09:00:00 -2.8 4 Norte 21 Sudeste 2.4 -- -- 99
2020-03-16 08:00:00 -2.9 5 Noroeste 24 Oeste 3 -- -- 99
2020-03-16 07:00:00 -3 5 Oeste 30 Oeste 2 -- -- 99
2020-03-16 06:00:00 -2.9 6 Noroeste 25 Norte 2.4 -- -- 99
2020-03-16 05:00:00 -2.6 4 Noroeste 12 Oeste 3.4 -- -- 99
2020-03-16 04:00:00 -2.6 3 Noroeste 9 Noroeste 4.2 -- -- 99
2020-03-16 03:00:00 -2.1 4 Sudoeste 9 Noroeste 1.2 -- -- 100
2020-03-16 02:00:00 -1.6 3 Sudoeste 8 Sudoeste 4.4 -- -- 100
2020-03-16 01:00:00 -1 3 Noroeste 21 Noroeste 2.4 -- -- 100
2020-03-16 00:00:00 0.3 4 Oeste 12 Este 0.4 -- -- 100
2020-03-15 23:00:00 0.6 8 Noroeste 17 Noroeste 2 -- -- 100
2020-03-15 22:00:00 3 9 Noroeste 18 Noroeste 0.4 -- -- 99
2020-03-15 21:00:00 5 5 Nordeste 12 Norte 0 -- -- 88
2020-03-15 20:00:00 4.6 7 Noroeste 60 Sur 0.4 -- -- 91
2020-03-15 19:00:00 5.2 20 Sudeste 39 Sudeste 5.2 -- -- 83
2020-03-15 18:00:00 5.7 18 Sur 39 Sur 5.2 -- -- 80
2020-03-15 17:00:00 9.4 4 Sur 27 Noroeste 0 -- -- 66
2020-03-15 16:00:00 10.9 16 Norte 50 Norte 0 -- -- 50
2020-03-15 15:00:00 12 16 Noroeste 35 Sur 0 -- -- 44
2020-03-15 14:00:00 11.4 13 Norte 38 Sur 0 -- -- 43
2020-03-15 13:00:00 11 19 Sudeste 52 Sudeste 0 -- -- 45
2020-03-15 12:00:00 10 30 Sur 49 Sur 0 -- -- 53
2020-03-15 11:00:00 9.4 19 Sur 51 Sudeste 0 -- -- 61
2020-03-15 10:00:00 9.3 23 Sudeste 53 Sudeste 0 -- -- 54
2020-03-15 09:00:00 8.8 22 Sudeste 54 Sudeste 0 -- -- 45
2020-03-15 08:00:00 8.7 33 Sudeste 51 Sudeste 0 -- -- 34
2020-03-15 07:00:00 8.9 31 Sudeste 43 Sudeste 0 -- -- 21
2020-03-15 06:00:00 8.5 19 Sudeste 53 Sur 0 -- -- 22
2020-03-15 05:00:00 8.9 27 Sudeste 41 Sudeste 0 -- -- 28
2020-03-15 04:00:00 8.8 22 Sudeste 36 Sur 0 -- -- 47
2020-03-15 03:00:00 8.9 25 Sur 42 Sur 0 -- -- 30
2020-03-15 02:00:00 7.6 6 Sudeste 20 Noroeste 0 -- -- 26
2020-03-15 01:00:00 9 7 Oeste 30 Sudeste 0 -- -- 16
2020-03-15 00:00:00 7.8 6 Sudeste 29 Sur 0 -- -- 26
2020-03-14 23:00:00 8 14 Sur 22 Sur 0 -- -- 34
2020-03-14 22:00:00 6.1 4 Sur 10 Sur 0 -- -- 42
2020-03-14 21:00:00 5.4 6 Sudeste 10 Sudeste 0 -- -- 49
2020-03-14 20:00:00 4.9 6 Este 12 Sur 0 -- -- 54
2020-03-14 19:00:00 5.5 8 Sur 12 Sur 0 -- -- 48
2020-03-14 18:00:00 10.3 0 Calma 8 Noroeste 0 -- -- 38
2020-03-14 17:00:00 9.7 4 Oeste 12 Noroeste 0 -- -- 37
2020-03-14 16:00:00 9.4 6 Noroeste 12 Noroeste 0 -- -- 34
2020-03-14 15:00:00 8.9 7 Noroeste 12 Oeste 0 -- -- 29
2020-03-14 14:00:00 8.6 8 Noroeste 11 Noroeste 0 -- -- 36
2020-03-14 13:00:00 7.6 5 Noroeste 10 Noroeste 0 -- -- 45
2020-03-14 12:00:00 7.5 6 Noroeste 10 Noroeste 0 -- -- 36
2020-03-14 11:00:00 7.4 3 Sur 7 Sur 0 -- -- 38
2020-03-14 10:00:00 6.2 4 Este 13 Este 0 -- -- 47
2020-03-14 09:00:00 3.9 10 Sudeste 15 Sudeste 0 -- -- 39
2020-03-14 08:00:00 2.7 6 Este 16 Este 0 -- -- 36
2020-03-14 07:00:00 3.7 8 Este 14 Sudeste 0 -- -- 32
2020-03-14 06:00:00 2.4 8 Nordeste 15 Este 0 -- -- 40
2020-03-14 05:00:00 2.5 8 Este 16 Sudeste 0 -- -- 38
2020-03-14 04:00:00 3.2 9 Este 17 Sudeste 0 -- -- 38
2020-03-14 03:00:00 2.1 6 Este 15 Este 0 -- -- 51
2020-03-14 02:00:00 3.8 10 Este 20 Sudeste 0 -- -- 49
2020-03-14 01:00:00 4.2 5 Sudeste 12 Noroeste 0 -- -- 100
2020-03-14 00:00:00 3.9 3 Este 13 Sudeste 0 -- -- 100
2020-03-13 23:00:00 3.8 3 Oeste 16 Sudeste 0 -- -- 100
2020-03-13 22:00:00 5.7 4 Sur 13 Sur 0 -- -- 100
2020-03-13 21:00:00 3.8 4 Este 14 Noroeste 0 -- -- 100
2020-03-13 20:00:00 1.5 4 Noroeste 11 Noroeste 0 -- -- 100
2020-03-13 19:00:00 1.7 5 Sur 11 Noroeste 0 -- -- 100
2020-03-13 18:00:00 1.5 4 Noroeste 8 Noroeste 0 -- -- 100
2020-03-13 17:00:00 1.6 3 Noroeste 6 Noroeste 0 -- -- 100
2020-03-13 16:00:00 1.9 5 Noroeste 9 Noroeste 0 -- -- 100
2020-03-13 15:00:00 2.1 4 Noroeste 10 Noroeste 0 -- -- 100
2020-03-13 14:00:00 2.5 4 Noroeste 8 Noroeste 0 -- -- 100
2020-03-13 13:00:00 2.2 4 Noroeste 9 Noroeste 0 -- -- 100
2020-03-13 12:00:00 2.4 5 Noroeste 9 Noroeste 0 -- -- 100
2020-03-13 11:00:00 2.5 2 Norte 8 Noroeste 0 -- -- 100
2020-03-13 10:00:00 1.6 3 Noroeste 6 Noroeste 0 -- -- 100
2020-03-13 09:00:00 1.2 3 Noroeste 6 Noroeste 0 -- -- 100
2020-03-13 08:00:00 1.1 5 Noroeste 8 Noroeste 0.4 -- -- 100
2020-03-13 07:00:00 1.1 5 Noroeste 12 Oeste 0.2 -- -- 100
2020-03-13 06:00:00 1.5 5 Noroeste 8 Noroeste 0.2 -- -- 100
2020-03-13 05:00:00 1.8 5 Noroeste 9 Noroeste 0.2 -- -- 100
2020-03-13 04:00:00 1.9 4 Noroeste 9 Noroeste 0 -- -- 100
2020-03-13 03:00:00 2.2 3 Noroeste 6 Norte 0 -- -- 100
2020-03-13 02:00:00 2.7 3 Norte 10 Noroeste 0.2 -- -- 100
2020-03-13 01:00:00 2.8 4 Noroeste 9 Noroeste 0.2 -- -- 100
2020-03-13 00:00:00 3.2 4 Noroeste 9 Noroeste 0.2 -- -- 100
2020-03-12 23:00:00 3.5 5 Noroeste 20 Este 0.2 -- -- 100
2020-03-12 22:00:00 4 3 Noroeste 9 Noroeste 0 -- -- 100
2020-03-12 21:00:00 4.3 3 Noroeste 10 Noroeste 0 -- -- 100
2020-03-12 20:00:00 4.6 4 Noroeste 11 Noroeste 0 -- -- 100
2020-03-12 19:00:00 5 2 Norte 25 Noroeste 0 -- -- 100
2020-03-12 18:00:00 6.1 6 Sudoeste 20 Noroeste 0 -- -- 100
2020-03-12 17:00:00 7.5 6 Noroeste 14 Noroeste 0 -- -- 93
2020-03-12 16:00:00 9.9 9 Noroeste 17 Oeste 0 -- -- 87
2020-03-12 15:00:00 11.2 6 Noroeste 14 Norte 0 -- -- 80
2020-03-12 14:00:00 13 6 Noroeste 20 Norte 0 -- -- 69
2020-03-12 13:00:00 15.7 8 Este 28 Este 0 -- -- 38
2020-03-12 12:00:00 16.6 6 Sur 22 Sur 0 -- -- 42
2020-03-12 11:00:00 14.7 15 Sur 29 Sur 0 -- -- 42
2020-03-12 10:00:00 14.1 9 Sur 26 Sudeste 0 -- -- 40
2020-03-12 09:00:00 11.9 4 Sur 18 Norte 0 -- -- 48
2020-03-12 08:00:00 12.7 6 Este 21 Norte 0 -- -- 46
2020-03-12 07:00:00 12.6 5 Sudeste 29 Este 0 -- -- 46
2020-03-12 06:00:00 13.2 5 Este 33 Este 0 -- -- 44
2020-03-12 05:00:00 12.8 9 Este 33 Sudeste 0 -- -- 51
2020-03-12 04:00:00 13.7 9 Sudeste 25 Este 0 -- -- 48
2020-03-12 03:00:00 12.8 6 Sudeste 27 Sur 0 -- -- 54
2020-03-12 02:00:00 13.6 14 Sudeste 32 Sudeste 0 -- -- 54
2020-03-12 01:00:00 13.2 15 Sudeste 41 Sur 0 -- -- 56
2020-03-12 00:00:00 13.8 22 Norte 55 Norte 0 -- -- 47
2020-03-11 23:00:00 13.9 21 Norte 47 Noroeste 0 -- -- 38
2020-03-11 22:00:00 13.8 16 Sudeste 52 Norte 0 -- -- 43
2020-03-11 21:00:00 13.9 15 Nordeste 36 Norte 0 -- -- 40
2020-03-11 20:00:00 13.7 12 Este 31 Sudeste 0 -- -- 39
2020-03-11 19:00:00 13.9 9 Sudeste 29 Norte 0 -- -- 39
2020-03-11 18:00:00 15.1 9 Norte 44 Norte 0 -- -- 37
2020-03-11 17:00:00 16.8 12 Norte 42 Norte 0 -- -- 33
2020-03-11 16:00:00 17.2 15 Norte 33 Norte 0 -- -- 28
2020-03-11 15:00:00 17 9 Sur 27 Noroeste 0 -- -- 26
2020-03-11 14:00:00 16.6 9 Noroeste 42 Noroeste 0 -- -- 21
2020-03-11 13:00:00 16.1 12 Norte 27 Norte 0 -- -- 20
2020-03-11 12:00:00 15.4 8 Norte 27 Norte 0 -- -- 15
2020-03-11 11:00:00 14.3 6 Noroeste 19 Sur 0 -- -- 9
2020-03-11 10:00:00 12.6 5 Sudeste 21 Oeste 0 -- -- 9
2020-03-11 09:00:00 9.6 6 Sur 15 Noroeste 0 -- -- 17
2020-03-11 08:00:00 6.6 8 Sur 14 Sur 0 -- -- 28
2020-03-11 07:00:00 9 5 Sudoeste 15 Noroeste 0 -- -- 25
2020-03-11 06:00:00 9.6 7 Sudoeste 19 Sudoeste 0 -- -- 28
2020-03-11 05:00:00 10.7 13 Sudoeste 23 Sudoeste 0 -- -- 31
2020-03-11 04:00:00 10.9 6 Sudoeste 21 Sudoeste 0 -- -- 28
2020-03-11 03:00:00 11 10 Sudoeste 22 Sudoeste 0 -- -- 32
2020-03-11 02:00:00 10.4 10 Sudoeste 20 Sudoeste 0 -- -- 39
2020-03-11 01:00:00 10.1 10 Sudoeste 18 Sudoeste 0 -- -- 44
2020-03-11 00:00:00 11.2 9 Noroeste 24 Noroeste 0 -- -- 33
2020-03-10 23:00:00 11.1 11 Oeste 22 Oeste 0 -- -- 36
2020-03-10 22:00:00 8.5 4 Sudeste 15 Noroeste 0 -- -- 51
2020-03-10 21:00:00 10.8 6 Oeste 22 Sudoeste 0 -- -- 44
2020-03-10 20:00:00 10.7 10 Sudoeste 21 Oeste 0 -- -- 54
2020-03-10 19:00:00 10.1 2 Sur 15 Noroeste 0 -- -- 63
2020-03-10 18:00:00 13.4 8 Noroeste 14 Noroeste 0 -- -- 49
2020-03-10 17:00:00 15.4 8 Noroeste 26 Noroeste 0 -- -- 45
2020-03-10 16:00:00 15.9 9 Noroeste 25 Noroeste 0 -- -- 44
2020-03-10 15:00:00 14.9 8 Noroeste 21 Norte 0 -- -- 50
2020-03-10 14:00:00 13.7 6 Noroeste 15 Noroeste 0 -- -- 53
2020-03-10 13:00:00 13.4 4 Sudoeste 8 Sudoeste 0 -- -- 56
2020-03-10 12:00:00 12.7 3 Sur 12 Sur 0 -- -- 58
2020-03-10 11:00:00 11.3 4 Sudoeste 14 Oeste 0 -- -- 59
2020-03-10 10:00:00 10.1 6 Oeste 14 Oeste 0 -- -- 62
2020-03-10 09:00:00 8.3 5 Oeste 13 Oeste 0 -- -- 63
2020-03-10 08:00:00 7 6 Sur 11 Sudoeste 0 -- -- 58
2020-03-10 07:00:00 5.8 3 Sur 8 Sudeste 0 -- -- 41
2020-03-10 06:00:00 5.6 6 Sudeste 10 Noroeste 0 -- -- 35
2020-03-10 05:00:00 5.3 4 Sudoeste 13 Noroeste 0 -- -- 38
2020-03-10 04:00:00 4.7 3 Nordeste 11 Oeste 0 -- -- 46
2020-03-10 03:00:00 4.1 2 Sur 9 Sudeste 0 -- -- 52
2020-03-10 02:00:00 3.1 5 Sudeste 13 Sur 0 -- -- 57
2020-03-10 01:00:00 2.5 6 Sudeste 11 Sudeste 0 -- -- 59
2020-03-10 00:00:00 2.3 3 Nordeste 13 Noroeste 0 -- -- 60
2020-03-09 23:00:00 1.2 4 Este 19 Sudeste 0 -- -- 73
2020-03-09 22:00:00 1.6 6 Sudeste 15 Sudeste 0 -- -- 73
2020-03-09 21:00:00 1.6 5 Noroeste 21 Oeste 0 -- -- 78
2020-03-09 20:00:00 0.9 5 Noroeste 14 Noroeste 0 -- -- 90
2020-03-09 19:00:00 1.4 9 Noroeste 20 Noroeste 0 -- -- 90
2020-03-09 18:00:00 1.9 14 Noroeste 27 Noroeste 0 -- -- 83
2020-03-09 17:00:00 2.2 12 Noroeste 28 Noroeste 0 -- -- 78
2020-03-09 16:00:00 2.4 17 Noroeste 35 Noroeste 0 -- -- 74
2020-03-09 15:00:00 2.5 16 Noroeste 39 Noroeste 0 -- -- 72
2020-03-09 14:00:00 1.5 19 Noroeste 37 Noroeste 0 -- -- 93
2020-03-09 13:00:00 1.1 15 Noroeste 37 Noroeste 0 -- -- 96
2020-03-09 12:00:00 -0.1 16 Noroeste 39 Noroeste 0 -- -- 99
2020-03-09 11:00:00 -0.5 19 Noroeste 35 Noroeste 0 -- -- 100
2020-03-09 10:00:00 -1.2 14 Noroeste 34 Noroeste 0 -- -- 100
2020-03-09 09:00:00 -1.2 10 Noroeste 24 Noroeste 0 -- -- 100
2020-03-09 08:00:00 -1.1 13 Noroeste 28 Noroeste 0 -- -- 100
2020-03-09 07:00:00 -0.9 15 Noroeste 30 Noroeste 0 -- -- 100
2020-03-09 06:00:00 -0.9 12 Noroeste 31 Noroeste 0 -- -- 100
2020-03-09 05:00:00 -0.3 15 Noroeste 27 Noroeste 0 -- -- 100
2020-03-09 04:00:00 0.3 13 Noroeste 24 Noroeste 0 -- -- 100
2020-03-09 03:00:00 0.5 11 Noroeste 22 Noroeste 0 -- -- 100
2020-03-09 02:00:00 0.8 6 Noroeste 18 Noroeste 0 -- -- 100
2020-03-09 01:00:00 1 7 Noroeste 26 Noroeste 0 -- -- 100
2020-03-09 00:00:00 2.7 10 Noroeste 26 Noroeste 0 -- -- 96
2020-03-08 23:00:00 3.7 15 Noroeste 39 Noroeste 0 -- -- 84
2020-03-08 22:00:00 4 13 Noroeste 31 Noroeste 0 -- -- 80
2020-03-08 21:00:00 3.8 11 Noroeste 27 Norte 0 -- -- 83
2020-03-08 20:00:00 4 10 Noroeste 29 Noroeste 0 -- -- 81
2020-03-08 19:00:00 4.6 12 Noroeste 31 Noroeste 0 -- -- 78
2020-03-08 18:00:00 5.9 11 Noroeste 27 Noroeste 0 -- -- 73
2020-03-08 17:00:00 7.8 7 Noroeste 28 Noroeste 0 -- -- 69
2020-03-08 16:00:00 8.2 7 Oeste 19 Noroeste 0 -- -- 64
2020-03-08 15:00:00 7.3 7 Sudoeste 26 Sur 0 -- -- 62
2020-03-08 14:00:00 7.6 8 Noroeste 24 Noroeste 0 -- -- 51
2020-03-08 13:00:00 8.1 7 Noroeste 15 Noroeste 0 -- -- 43
2020-03-08 12:00:00 6.6 6 Sur 20 Sudoeste 0 -- -- 45
2020-03-08 11:00:00 6.3 5 Sudeste 14 Sur 0 -- -- 29
2020-03-08 10:00:00 4.8 8 Sudeste 13 Oeste 0 -- -- 33
2020-03-08 09:00:00 5.7 7 Noroeste 28 Oeste 0 -- -- 24
2020-03-08 08:00:00 6.5 10 Oeste 33 Oeste 0 -- -- 14
2020-03-08 07:00:00 6.6 10 Oeste 21 Oeste 0 -- -- 16
2020-03-08 06:00:00 5.4 7 Oeste 17 Noroeste 0 -- -- 18
2020-03-08 05:00:00 4.5 5 Este 19 Oeste 0 -- -- 19
2020-03-08 04:00:00 6.4 9 Oeste 23 Oeste 0 -- -- 13
2020-03-08 03:00:00 2.5 8 Este 15 Sudeste 0 -- -- 38
2020-03-08 02:00:00 2.5 9 Este 15 Este 0 -- -- 40
2020-03-08 01:00:00 1.8 8 Sudeste 13 Sudeste 0 -- -- 48
2020-03-08 00:00:00 2.8 5 Este 14 Sur 0 -- -- 59
2020-03-07 23:00:00 2.4 5 Este 9 Sudeste 0 -- -- 71
2020-03-07 22:00:00 2.1 6 Sudeste 12 Norte 0 -- -- 82
2020-03-07 21:00:00 2.2 3 Norte 13 Sudoeste 0 -- -- 83
2020-03-07 20:00:00 1.3 6 Sudeste 9 Sudeste 0 -- -- 100
2020-03-07 19:00:00 0.7 3 Sudeste 17 Norte 0 -- -- 100
2020-03-07 18:00:00 1.4 8 Noroeste 16 Noroeste 0 -- -- 100
2020-03-07 17:00:00 1.5 5 Noroeste 11 Noroeste 0 -- -- 100
2020-03-07 16:00:00 1.1 8 Noroeste 19 Noroeste 0 -- -- 100
2020-03-07 15:00:00 1 9 Noroeste 17 Oeste 0 -- -- 100
2020-03-07 14:00:00 0.5 10 Noroeste 21 Noroeste 0.2 -- -- 100
2020-03-07 13:00:00 0 11 Noroeste 28 Oeste 0 -- -- 100
2020-03-07 12:00:00 -0.1 11 Noroeste 18 Noroeste 0 -- -- 100
2020-03-07 11:00:00 -0.2 8 Noroeste 15 Noroeste 0 -- -- 100
2020-03-07 10:00:00 -0.6 6 Noroeste 13 Noroeste 0.2 -- -- 100
2020-03-07 09:00:00 -0.9 5 Noroeste 9 Noroeste 1 -- -- 100
2020-03-07 08:00:00 -1.4 4 Noroeste 9 Noroeste 1.4 -- -- 100
2020-03-07 07:00:00 -1.4 5 Noroeste 12 Noroeste 0.4 -- -- 100
2020-03-07 06:00:00 -1.6 8 Noroeste 19 Noroeste 0.6 -- -- 100
2020-03-07 05:00:00 -1.8 9 Noroeste 15 Noroeste 0.2 -- -- 100
2020-03-07 04:00:00 -2.2 9 Noroeste 19 Norte 0 -- -- 100
2020-03-07 03:00:00 -3 9 Noroeste 22 Noroeste 0 -- -- 99
2020-03-07 02:00:00 -3.4 12 Noroeste 41 Oeste 0 -- -- 99
2020-03-07 01:00:00 -3 17 Noroeste 37 Noroeste 0 -- -- 99
2020-03-07 00:00:00 -2.7 19 Noroeste 37 Noroeste 0 -- -- 99
2020-03-06 23:00:00 -2.8 17 Noroeste 31 Noroeste 0 -- -- 99
2020-03-06 22:00:00 -3.3 14 Noroeste 36 Noroeste 0.4 -- -- 99
2020-03-06 21:00:00 -3.5 15 Noroeste 39 Noroeste 0.4 -- -- 99
2020-03-06 20:00:00 -3.6 15 Noroeste 55 Noroeste 0.2 -- -- 98
2020-03-06 19:00:00 -3.6 32 Noroeste 57 Noroeste 0.2 -- -- 98
2020-03-06 18:00:00 -3.1 23 Noroeste 67 Noroeste 0 -- -- 99
2020-03-06 17:00:00 -3.3 29 Noroeste 63 Noroeste 0 -- -- 97
2020-03-06 16:00:00 -2.5 35 Noroeste 72 Noroeste 0 -- -- 86
2020-03-06 15:00:00 -2.8 28 Noroeste 58 Noroeste 0 -- -- 89
2020-03-06 14:00:00 -3 25 Noroeste 58 Noroeste 0 -- -- 92
2020-03-06 13:00:00 -3.9 24 Noroeste 59 Noroeste 0 -- -- 97
2020-03-06 12:00:00 -3.9 31 Noroeste 69 Noroeste 0.2 -- -- 97
2020-03-06 11:00:00 -4.1 30 Noroeste 72 Oeste 0.4 -- -- 98
2020-03-06 10:00:00 -2.9 21 Noroeste 46 Norte 0 -- -- 97
2020-03-06 09:00:00 -2.5 30 Norte 59 Noroeste 0 -- -- 89
2020-03-06 08:00:00 -2.2 21 Noroeste 49 Noroeste 0 -- -- 90
2020-03-06 07:00:00 -2.1 18 Noroeste 44 Noroeste 0 -- -- 100
2020-03-06 06:00:00 -1.6 24 Norte 44 Norte 0 -- -- 94
2020-03-06 05:00:00 -1.3 19 Noroeste 56 Norte 0 -- -- 94
2020-03-06 04:00:00 -0.9 32 Norte 71 Noroeste 0 -- -- 91
2020-03-06 03:00:00 -0.8 26 Norte 50 Noroeste 0 -- -- 87
2020-03-06 02:00:00 -0.7 13 Norte 46 Noroeste 0 -- -- 82
2020-03-06 01:00:00 -0.4 13 Norte 42 Noroeste 0 -- -- 86
2020-03-06 00:00:00 -0.1 12 Noroeste 27 Noroeste 0 -- -- 93
2020-03-05 23:00:00 -0.1 11 Noroeste 25 Norte 0 -- -- 97
2020-03-05 22:00:00 -0.7 3 Sur 14 Noroeste 0 -- -- 100
2020-03-05 21:00:00 -0.5 8 Noroeste 20 Noroeste 0 -- -- 100
2020-03-05 20:00:00 -0.1 10 Noroeste 24 Norte 0 -- -- 100
2020-03-05 19:00:00 0.5 11 Noroeste 32 Noroeste 0 -- -- 100
2020-03-05 18:00:00 0.9 11 Noroeste 21 Noroeste 1.4 -- -- 100
2020-03-05 17:00:00 0.6 16 Noroeste 53 Norte 0.4 -- -- 99
2020-03-05 16:00:00 4.7 20 Noroeste 59 Noroeste 0 -- -- 68
2020-03-05 15:00:00 3.6 29 Norte 75 Norte 0 -- -- 76
2020-03-05 14:00:00 3.6 26 Noroeste 80 Norte 0 -- -- 73
2020-03-05 13:00:00 2.9 33 Noroeste 84 Noroeste 0 -- -- 78
2020-03-05 12:00:00 3.1 48 Norte 99 Norte 0.6 -- -- 77
2020-03-05 11:00:00 4.3 43 Norte 89 Norte 1 -- -- 95
2020-03-05 10:00:00 4.9 36 Norte 78 Norte 0.6 -- -- 96
2020-03-05 09:00:00 4.9 24 Este 79 Sur 1 -- -- 93
2020-03-05 08:00:00 4.6 24 Nordeste 85 Norte 1.2 -- -- 96
2020-03-05 07:00:00 5.2 26 Norte 79 Norte 0 -- -- 95
2020-03-05 06:00:00 5.5 21 Este 69 Sudeste 0.2 -- -- 94
2020-03-05 05:00:00 5.5 14 Norte 72 Sudeste 0 -- -- 96
2020-03-05 04:00:00 6.3 23 Sudeste 82 Sur 0 -- -- 90
2020-03-05 03:00:00 5.7 26 Sudeste 75 Sudeste 0 -- -- 95
2020-03-05 02:00:00 6.2 15 Sudeste 58 Sur 0 -- -- 88
2020-03-05 01:00:00 6 16 Noroeste 49 Sudoeste 0 -- -- 90
2020-03-05 00:00:00 6.2 15 Sudoeste 54 Sur 0 -- -- 84
2020-03-04 23:00:00 5.5 10 Sudoeste 50 Sudeste 0 -- -- 92
2020-03-04 22:00:00 6.2 13 Oeste 38 Noroeste 0 -- -- 85
2020-03-04 21:00:00 6.4 13 Oeste 64 Sur 0 -- -- 84
2020-03-04 20:00:00 6.4 26 Sudeste 60 Sur 0 -- -- 83
2020-03-04 19:00:00 6.2 10 Norte 51 Sur 0 -- -- 84
2020-03-04 18:00:00 6.3 23 Sudeste 52 Sur 0 -- -- 85
2020-03-04 17:00:00 6.9 20 Sudeste 39 Sur 0 -- -- 82
2020-03-04 16:00:00 7.4 14 Sudoeste 31 Sudoeste 0 -- -- 80
2020-03-04 15:00:00 8 12 Sudoeste 33 Sudoeste 0 -- -- 78
2020-03-04 14:00:00 8.3 10 Sudoeste 33 Sudoeste 0 -- -- 75
2020-03-04 13:00:00 7.5 21 Sudoeste 38 Sudoeste 0 -- -- 77
2020-03-04 12:00:00 6.2 14 Noroeste 41 Noroeste 0 -- -- 85
2020-03-04 11:00:00 6.2 12 Norte 57 Norte 0 -- -- 86
2020-03-04 10:00:00 5.7 15 Norte 47 Norte 0.2 -- -- 90
2020-03-04 09:00:00 5.8 14 Noroeste 46 Noroeste 0 -- -- 95
2020-03-04 08:00:00 5.6 23 Nordeste 43 Norte 0 -- -- 98
2020-03-04 07:00:00 5.9 10 Oeste 41 Noroeste 0 -- -- 97
2020-03-04 06:00:00 5.9 16 Norte 47 Norte 0 -- -- 97
2020-03-04 05:00:00 6 18 Norte 48 Nordeste 0 -- -- 93
2020-03-04 04:00:00 5.5 14 Norte 32 Norte 0.2 -- -- 92
2020-03-04 03:00:00 5.4 13 Sudoeste 34 Sudoeste 0 -- -- 80
2020-03-04 02:00:00 4.6 11 Sudoeste 28 Oeste 0 -- -- 68
2020-03-04 01:00:00 5.5 12 Oeste 24 Noroeste 0 -- -- 52
2020-03-04 00:00:00 4.8 7 Oeste 26 Oeste 0 -- -- 57
2020-03-03 23:00:00 5.1 8 Oeste 26 Noroeste 0 -- -- 63
2020-03-03 22:00:00 3.3 5 Noroeste 12 Oeste 0 -- -- 100
2020-03-03 21:00:00 2.9 5 Noroeste 23 Noroeste 0 -- -- 100
2020-03-03 20:00:00 3.2 8 Noroeste 23 Oeste 0 -- -- 100
2020-03-03 19:00:00 3.6 8 Noroeste 36 Noroeste 0 -- -- 100
2020-03-03 18:00:00 4.6 21 Noroeste 54 Noroeste 0 -- -- 97
2020-03-03 17:00:00 9 35 Noroeste 77 Norte 0 -- -- 63
2020-03-03 16:00:00 8.9 31 Noroeste 76 Norte 0 -- -- 67
2020-03-03 15:00:00 8.3 37 Noroeste 77 Noroeste 0 -- -- 67
2020-03-03 14:00:00 7.5 36 Noroeste 97 Norte 0 -- -- 64
2020-03-03 13:00:00 5.8 42 Noroeste 95 Noroeste 0 -- -- 76
2020-03-03 12:00:00 4.1 43 Norte 101 Noroeste 0 -- -- 89
2020-03-03 11:00:00 2.7 49 Norte 98 Norte 0 -- -- 94
2020-03-03 10:00:00 1.4 32 Norte 113 Norte 0 -- -- 98
2020-03-03 09:00:00 1.9 47 Norte 108 Noroeste 0.2 -- -- 87
2020-03-03 08:00:00 0.5 27 Norte 87 Norte 0 -- -- 88
2020-03-03 07:00:00 -0.8 22 Norte 56 Nordeste 0.6 -- -- 93
2020-03-03 06:00:00 -1.2 17 Norte 58 Norte 0 -- -- 92
2020-03-03 05:00:00 -1.6 18 Norte 45 Norte 0 -- -- 94
2020-03-03 04:00:00 -1.9 22 Norte 51 Noroeste 0 -- -- 95
2020-03-03 03:00:00 -2.1 21 Norte 51 Noroeste 0 -- -- 93
2020-03-03 02:00:00 -2.3 17 Norte 61 Norte 0 -- -- 93
2020-03-03 01:00:00 -2.2 17 Noroeste 45 Norte 0 -- -- 89
2020-03-03 00:00:00 -2.4 16 Noroeste 49 Norte 0 -- -- 86
2020-03-02 23:00:00 -2.3 14 Noroeste 41 Noroeste 0 -- -- 78
2020-03-02 22:00:00 -2.2 17 Noroeste 43 Noroeste 0 -- -- 71
2020-03-02 21:00:00 -2.1 19 Noroeste 50 Noroeste 0 -- -- 72
2020-03-02 20:00:00 -1.8 16 Noroeste 39 Oeste 0 -- -- 77
2020-03-02 19:00:00 -2 13 Noroeste 30 Noroeste 0 -- -- 87
2020-03-02 18:00:00 -2.2 14 Noroeste 48 Noroeste 0 -- -- 91
2020-03-02 17:00:00 -0.1 24 Noroeste 66 Noroeste 0 -- -- 65
2020-03-02 16:00:00 -1.1 35 Noroeste 63 Noroeste 0.2 -- -- 93
2020-03-02 15:00:00 -2 23 Noroeste 48 Noroeste 1.8 -- -- 100
2020-03-02 14:00:00 -1.8 26 Noroeste 48 Noroeste 0.6 -- -- 99
2020-03-02 13:00:00 -1.8 12 Noroeste 40 Norte 1.4 -- -- 100
2020-03-02 12:00:00 -2.6 15 Noroeste 35 Noroeste 0.4 -- -- 99
2020-03-02 11:00:00 -1.2 21 Norte 51 Norte 0 -- -- 89
2020-03-02 10:00:00 -1.1 17 Noroeste 57 Noroeste 0.8 -- -- 98
2020-03-02 09:00:00 -0.7 29 Noroeste 81 Norte 0 -- -- 94
2020-03-02 08:00:00 -1 41 Noroeste 94 Noroeste 0 -- -- 98
2020-03-02 07:00:00 2.1 29 Noroeste 79 Noroeste 0 -- -- 85
2020-03-02 06:00:00 2.2 34 Noroeste 139 Noroeste 1.8 -- -- 96
2020-03-02 05:00:00 4.1 78 Norte 176 Norte 2.2 -- -- 100
2020-03-02 04:00:00 4.4 59 Norte 117 Noroeste 2.4 -- -- 100
2020-03-02 03:00:00 4.5 50 Norte 123 Norte 3 -- -- 100
2020-03-02 02:00:00 4.8 40 Norte 105 Norte 2.4 -- -- 95
2020-03-02 01:00:00 4.9 33 Este 112 Norte 3.4 -- -- 90
2020-03-02 00:00:00 4.3 30 Sudeste 86 Sudeste 2.8 -- -- 87
2020-03-01 23:00:00 3.3 28 Sudeste 76 Sudeste 3 -- -- 88
2020-03-01 22:00:00 2.8 33 Sudeste 68 Sur 2.2 -- -- 89
2020-03-01 21:00:00 3.6 24 Norte 77 Norte 0 -- -- 76
2020-03-01 20:00:00 5.2 25 Norte 69 Nordeste 0 -- -- 72
2020-03-01 19:00:00 5.4 41 Norte 109 Noroeste 0 -- -- 66
2020-03-01 18:00:00 5.7 44 Norte 93 Norte 0 -- -- 65
2020-03-01 17:00:00 5.6 43 Norte 89 Norte 0 -- -- 71
2020-03-01 16:00:00 5.8 27 Norte 71 Norte 0 -- -- 68
2020-03-01 15:00:00 6.1 22 Nordeste 73 Norte 0 -- -- 65
2020-03-01 14:00:00 5.3 22 Norte 88 Norte 0 -- -- 58
2020-03-01 13:00:00 4.4 31 Nordeste 93 Norte 0 -- -- 72
2020-03-01 12:00:00 3.6 47 Norte 94 Norte 0 -- -- 73
2020-03-01 11:00:00 2.6 55 Norte 100 Norte 0 -- -- 83
2020-03-01 10:00:00 1.7 48 Norte 106 Norte 0.2 -- -- 94
2020-03-01 09:00:00 1.5 38 Norte 98 Noroeste 0 -- -- 96
2020-03-01 08:00:00 1.4 36 Norte 94 Norte 0 -- -- 98
2020-03-01 07:00:00 0.5 23 Norte 71 Norte 0 -- -- 100
2020-03-01 06:00:00 0.3 40 Norte 97 Noroeste 0 -- -- 100
2020-03-01 05:00:00 0.4 32 Norte 79 Noroeste 0 -- -- 99
2020-03-01 04:00:00 0.4 29 Norte 82 Norte 0 -- -- 100
2020-03-01 03:00:00 0.6 36 Norte 89 Noroeste 0 -- -- 99
2020-03-01 02:00:00 1.1 29 Norte 73 Norte 0 -- -- 93
2020-03-01 01:00:00 1.2 32 Norte 77 Norte 0 -- -- 89
2020-03-01 00:00:00 1.3 38 Norte 78 Noroeste 0 -- -- 82
2020-02-29 23:00:00 1.3 22 Sudeste 73 Norte 0 -- -- 83
2020-02-29 22:00:00 1.4 31 Norte 59 Norte 0 -- -- 81
2020-02-29 21:00:00 1.8 16 Norte 60 Noroeste 0 -- -- 80
2020-02-29 20:00:00 2.2 27 Norte 73 Sudeste 0 -- -- 78
2020-02-29 19:00:00 2.9 23 Sudeste 62 Sur 0 -- -- 73
2020-02-29 18:00:00 3.6 29 Norte 92 Norte 0 -- -- 80
2020-02-29 17:00:00 4.5 36 Norte 80 Norte 0 -- -- 77
2020-02-29 16:00:00 5.5 36 Norte 87 Norte 0 -- -- 80
2020-02-29 15:00:00 5.3 44 Norte 112 Norte 0.2 -- -- 89
2020-02-29 14:00:00 5.3 38 Norte 84 Norte 0.2 -- -- 91
2020-02-29 13:00:00 4.5 39 Norte 82 Noroeste 0.2 -- -- 94
2020-02-29 12:00:00 3.8 49 Norte 100 Norte 0 -- -- 97
2020-02-29 11:00:00 3.6 31 Norte 84 Norte 0 -- -- 96
2020-02-29 10:00:00 3 33 Norte 85 Norte 0 -- -- 95
2020-02-29 09:00:00 3.1 31 Nordeste 91 Norte 0 -- -- 85
2020-02-29 08:00:00 3.1 29 Norte 84 Norte 0 -- -- 75
2020-02-29 07:00:00 3.6 27 Nordeste 92 Sudeste 0 -- -- 57
2020-02-29 06:00:00 4.6 29 Este 117 Sudeste 0 -- -- 51
2020-02-29 05:00:00 4.7 42 Sudeste 108 Sudeste 0 -- -- 67
2020-02-29 04:00:00 5.4 35 Sudeste 90 Sudeste 0 -- -- 63
2020-02-29 03:00:00 5.9 47 Sudeste 98 Sudeste 0 -- -- 56
2020-02-29 02:00:00 5.8 22 Sudeste 73 Sur 0 -- -- 58
2020-02-29 01:00:00 5.5 12 Sudeste 38 Sudeste 0 -- -- 55
2020-02-29 00:00:00 6.4 17 Sudeste 57 Sur 0 -- -- 50